Latest Weather Observations for Legendre Island

IDW60801

Issued at 5:35 pm WST Wednesday 26 November 2014 (issued every 30 minutes, with the page automatically refreshed every 10 minutes)

About weather observations | Map of weather stations | Latest weather observations for WA | Other Formats
Station Details ID: 004095 Name: LEGENDRE ISLAND Lat: -20.36 Lon: 116.84 Height: 29.0 m
Data from the previous 72 hours. | See also: Recent months for locations in Western Australia
Date/Time
WST
Temp
°C
App
Temp
°C
Dew
Point
Rel
Hum
%
Delta-T
°C
Wind Press
QNH
hPa
Press
MSL
hPa
Rain
since 9 am
mm
Dir
 
Spd
km/h
Gust
km/h
Spd
kts
Gust
kts
26/05:30pm 28.4 29.8 23.5 75 3.4 W 22 26 12 14 1006.8 1006.6 -
26/05:00pm 29.1 31.1 24.0 74 3.5 W 20 24 11 13 1006.9 1006.7 -
26/04:30pm 29.6 31.7 23.8 71 4.0 W 19 22 10 12 1006.9 1006.7 -
26/04:00pm 30.3 31.8 22.7 64 5.2 NW 19 24 10 13 1007.0 1006.8 -
26/03:30pm 30.6 32.1 22.7 62 5.4 NNW 19 22 10 12 1007.3 1007.2 -
26/03:00pm 30.6 31.8 22.2 61 5.7 NNW 19 22 10 12 1007.4 1007.3 -
26/02:30pm 30.3 31.5 22.2 62 5.5 NNW 19 22 10 12 1007.8 1007.7 -
26/02:00pm 30.4 31.7 22.3 62 5.5 NNW 19 20 10 11 1007.9 1007.8 -
26/01:30pm 30.3 32.6 23.5 67 4.7 N 17 20 9 11 1008.1 1008.0 -
26/01:00pm 30.3 32.2 22.7 64 5.2 N 17 20 9 11 1008.1 1008.0 -
26/12:30pm 30.5 32.1 22.1 61 5.7 N 17 19 9 10 1008.3 1008.2 -
26/12:00pm 31.0 31.9 22.0 58 6.1 NNE 20 22 11 12 1008.7 1008.6 -
26/11:30am 30.9 31.8 21.9 58 6.1 NE 20 22 11 12 1009.2 1009.1 -
26/11:00am 31.4 32.7 22.7 60 6.0 NE 20 24 11 13 1009.5 1009.4 -
26/10:30am 31.2 32.2 22.2 58 6.1 NE 20 24 11 13 1009.9 1009.8 -
26/10:00am 30.8 32.0 22.1 59 5.9 NE 19 20 10 11 1010.0 1009.9 -
26/09:30am 30.1 31.4 22.3 63 5.3 NE 19 22 10 12 1010.3 1010.2 -
26/09:00am 29.9 32.3 23.6 69 4.4 NE 17 20 9 11 1010.5 1010.4 -
26/08:30am 29.2 31.4 23.9 73 3.7 NE 19 22 10 12 1010.5 1010.4 -
26/08:00am 28.6 31.5 24.4 78 2.9 NE 17 20 9 11 1010.6 1010.5 -
26/07:30am 28.1 30.5 24.3 80 2.6 NE 19 20 10 11 1010.6 1010.5 -
26/07:00am 27.5 29.6 24.1 82 2.4 NE 20 24 11 13 1010.3 1010.2 -
26/06:30am 27.4 28.6 23.2 78 2.9 ENE 22 26 12 14 1010.0 1009.9 -
26/06:00am 26.5 30.4 23.6 84 2.0 ESE 9 17 5 9 1009.6 1009.5 -
26/05:30am 25.3 28.1 23.0 87 1.6 SSW 13 15 7 8 1009.3 1009.2 -
26/05:00am 25.1 27.7 22.6 86 1.7 SSW 13 15 7 8 1008.8 1008.7 -
26/04:30am 25.5 28.0 22.4 83 2.1 SSW 13 17 7 9 1008.5 1008.4 -
26/04:00am 25.6 27.7 22.5 83 2.1 SSW 15 17 8 9 1008.7 1008.6 -
26/03:30am 25.6 27.1 22.7 84 2.0 SSW 19 22 10 12 1008.8 1008.7 -
26/03:00am 25.7 26.9 23.9 90 1.2 S 24 32 13 17 1009.2 1009.1 -
26/02:30am 25.1 25.2 23.2 89 1.3 SW 28 33 15 18 1008.1 1008.0 -
26/02:00am 25.0 24.4 23.4 91 1.1 SW 32 37 17 20 1007.8 1007.7 -
26/01:30am 24.9 24.6 23.3 91 1.1 SW 30 35 16 19 1007.6 1007.5 -
26/01:00am 25.1 26.1 24.1 94 0.7 WSW 26 32 14 17 1007.9 1007.8 -
26/12:30am 25.1 25.2 23.9 93 0.8 WSW 30 37 16 20 1008.2 1008.1 -
26/12:00am 25.2 24.7 23.8 92 1.0 WSW 33 41 18 22 1008.3 1008.2 -
 
Date/Time
WST
Temp
°C
App
Temp
°C
Dew
Point
Rel
Hum
%
Delta-T
°C
Wind Press
QNH
hPa
Press
MSL
hPa
Rain
since 9 am
mm
Dir
 
Spd
km/h
Gust
km/h
Spd
kts
Gust
kts
25/11:30pm 25.3 24.6 23.5 90 1.2 WSW 33 41 18 22 1008.2 1008.1 -
25/11:00pm 25.4 24.7 23.5 89 1.3 WSW 33 39 18 21 1008.6 1008.5 -
25/10:30pm 25.5 25.3 23.4 88 1.4 W 30 37 16 20 1008.7 1008.6 -
25/10:00pm 25.6 25.3 23.3 87 1.6 W 30 35 16 19 1008.7 1008.6 -
25/09:30pm 25.7 25.4 23.2 86 1.7 W 30 35 16 19 1008.7 1008.6 -
25/09:00pm 26.0 25.5 23.5 86 1.7 W 32 39 17 21 1008.3 1008.2 -
25/08:30pm 26.1 25.3 23.4 85 1.8 W 33 44 18 24 1008.0 1007.9 -
25/08:00pm 26.1 25.2 23.2 84 2.0 W 33 39 18 21 1007.6 1007.5 -
25/07:30pm 26.3 26.2 23.6 85 1.8 W 30 35 16 19 1007.4 1007.3 -
25/07:00pm 26.4 25.8 23.3 83 2.1 W 32 37 17 20 1007.2 1007.1 -
25/06:30pm 26.9 25.6 22.5 77 3.0 W 33 41 18 22 1006.9 1006.7 -
25/06:00pm 28.1 27.9 22.1 70 4.1 W 26 33 14 18 1006.6 1006.4 -
25/05:30pm 28.6 27.9 21.1 64 5.0 W 26 32 14 17 1006.5 1006.3 -
25/05:00pm 29.5 29.1 20.9 60 5.7 W 24 30 13 16 1006.4 1006.2 -
25/04:30pm 30.3 29.2 21.1 58 6.2 W 28 33 15 18 1006.2 1006.0 -
25/04:00pm 31.0 30.7 21.8 58 6.2 W 26 32 14 17 1006.3 1006.1 -
25/03:30pm 30.8 31.4 22.1 59 5.9 WNW 22 28 12 15 1006.3 1006.1 -
25/03:00pm 31.1 32.1 22.1 58 6.1 W 20 26 11 14 1006.6 1006.4 -
25/02:30pm 31.2 32.4 22.2 58 6.1 W 19 22 10 12 1006.9 1006.7 -
25/02:00pm 31.2 32.1 21.9 57 6.3 W 20 26 11 14 1007.0 1006.8 -
25/01:30pm 31.4 32.4 22.1 57 6.3 W 20 26 11 14 1007.3 1007.2 -
25/01:00pm 31.8 31.8 21.6 54 6.9 W 24 28 13 15 1007.4 1007.3 -
25/12:30pm 31.5 31.7 22.8 60 6.0 W 26 30 14 16 1007.6 1007.5 -
25/12:00pm 31.5 31.6 22.5 59 6.2 WSW 26 30 14 16 1008.0 1007.9 -
25/11:30am 32.2 32.9 22.3 56 6.8 WSW 22 28 12 15 1008.3 1008.2 -
25/11:00am 31.4 31.8 21.8 56 6.5 WSW 22 28 12 15 1008.5 1008.4 -
25/10:30am 31.6 31.4 21.2 54 7.0 WSW 24 30 13 16 1008.7 1008.6 -
25/10:00am 30.8 29.6 20.1 53 7.1 WSW 26 30 14 16 1009.0 1008.9 -
25/09:30am 30.5 30.9 21.0 57 6.3 SW 20 24 11 13 1009.5 1009.4 -
25/09:00am 30.6 31.6 21.1 57 6.4 SW 17 22 9 12 1009.8 1009.7 -
25/08:30am 29.8 31.0 21.5 61 5.6 SW 17 20 9 11 1009.7 1009.6 -
25/08:00am 28.9 29.4 21.1 62 5.2 SSW 20 24 11 13 1009.5 1009.4 -
25/07:30am 28.2 29.3 22.0 69 4.2 SW 19 24 10 13 1009.4 1009.3 -
25/07:00am 28.0 27.5 21.5 67 4.4 SW 26 30 14 16 1009.1 1009.0 -
25/06:30am 26.9 25.9 21.2 71 3.8 SW 28 33 15 18 1009.0 1008.9 -
25/06:00am 26.2 25.2 21.2 74 3.3 SW 28 33 15 18 1008.9 1008.8 -
25/05:30am 26.0 24.5 20.3 71 3.7 SW 28 33 15 18 1008.8 1008.7 -
25/05:00am 26.0 24.0 19.2 66 4.4 SW 28 35 15 19 1008.8 1008.7 -
25/04:30am 25.8 23.5 19.4 67 4.1 SW 30 37 16 20 1008.8 1008.7 -
25/04:00am 25.7 24.3 21.1 76 3.0 SW 30 35 16 19 1008.6 1008.5 -
25/03:30am 25.6 24.8 22.3 82 2.2 SW 30 33 16 18 1008.4 1008.3 -
25/03:00am 25.6 24.5 22.5 83 2.1 SW 32 37 17 20 1008.3 1008.2 -
25/02:30am 25.5 24.7 23.0 86 1.7 SW 32 37 17 20 1008.3 1008.2 -
25/02:00am 25.5 24.8 23.2 87 1.6 SW 32 37 17 20 1008.4 1008.3 -
25/01:30am 25.5 24.8 23.6 89 1.3 SW 33 41 18 22 1008.4 1008.3 -
25/01:00am 25.6 25.1 23.5 88 1.4 SW 32 37 17 20 1008.7 1008.6 -
25/12:30am 25.5 24.6 22.8 85 1.8 WSW 32 39 17 21 1009.0 1008.9 -
25/12:00am 25.6 23.6 21.9 80 2.5 WSW 35 41 19 22 1009.3 1009.2 -
 
Date/Time
WST
Temp
°C
App
Temp
°C
Dew
Point
Rel
Hum
%
Delta-T
°C
Wind Press
QNH
hPa
Press
MSL
hPa
Rain
since 9 am
mm
Dir
 
Spd
km/h
Gust
km/h
Spd
kts
Gust
kts
24/11:30pm 25.6 24.4 22.3 82 2.2 SW 32 37 17 20 1009.5 1009.4 -
24/11:00pm 25.7 26.8 23.6 88 1.4 SW 24 30 13 16 1009.7 1009.6 -
24/10:30pm 26.0 26.2 22.7 82 2.2 WSW 26 32 14 17 1010.0 1009.9 -
24/10:00pm 26.1 26.1 22.4 80 2.5 WSW 26 30 14 16 1010.0 1009.9 -
24/09:30pm 26.2 25.4 21.6 76 3.1 WSW 28 32 15 17 1009.9 1009.8 -
24/09:00pm 26.3 25.7 21.3 74 3.3 WSW 26 33 14 18 1009.8 1009.7 -
24/08:30pm 26.4 25.4 21.2 73 3.4 WSW 28 32 15 17 1009.5 1009.4 -
24/08:00pm 26.4 25.4 21.2 73 3.5 WSW 28 33 15 18 1009.2 1009.1 -
24/07:30pm 26.5 25.3 20.8 71 3.8 WSW 28 35 15 19 1009.0 1008.9 -
24/07:00pm 26.5 26.4 21.5 74 3.3 W 24 32 13 17 1008.7 1008.6 -
24/06:30pm 26.9 26.5 21.6 72 3.5 W 26 30 14 16 1008.5 1008.4 -
24/06:00pm 27.3 27.3 21.6 71 3.8 W 24 28 13 15 1008.2 1008.1 -
24/05:30pm 28.0 27.7 22.5 72 3.7 WSW 28 35 15 19 1007.8 1007.7 -
24/05:00pm 28.5 28.4 22.3 69 4.2 WSW 26 33 14 18 1007.7 1007.6 -
24/04:30pm 29.4 30.3 22.6 67 4.6 WSW 22 30 12 16 1007.5 1007.4 -
24/04:00pm 29.8 29.4 22.3 64 5.1 W 28 32 15 17 1007.5 1007.4 -
24/03:30pm 29.7 29.6 22.2 64 5.1 W 26 32 14 17 1007.7 1007.6 -
24/03:00pm 29.9 28.4 21.8 62 5.5 W 32 35 17 19 1007.8 1007.7 -
24/02:30pm 30.4 28.9 20.9 57 6.3 W 30 35 16 19 1008.1 1008.0 -
24/02:00pm 29.5 28.8 22.5 66 4.8 W 30 35 16 19 1008.4 1008.3 -
24/01:30pm 30.5 29.9 22.7 63 5.3 WSW 30 35 16 19 1008.8 1008.7 -
24/01:00pm 30.7 30.8 22.6 62 5.5 W 26 33 14 18 1009.1 1009.0 -
24/12:30pm 30.2 29.7 22.1 62 5.5 W 28 33 15 18 1009.4 1009.3 -
24/12:00pm 30.9 30.7 22.8 62 5.6 WSW 28 32 15 17 1009.6 1009.5 -
24/11:30am 30.6 29.6 21.9 59 5.9 WSW 30 33 16 18 1009.9 1009.8 -
24/11:00am 30.9 30.0 21.4 57 6.4 WSW 28 32 15 17 1010.2 1010.1 -
24/10:30am 30.7 29.8 21.5 58 6.2 WSW 28 32 15 17 1010.4 1010.3 -
24/10:00am 29.7 28.8 21.4 61 5.6 WSW 28 32 15 17 1010.7 1010.6 -
24/09:30am 29.5 28.3 20.9 60 5.7 WSW 28 33 15 18 1010.8 1010.7 -
24/09:00am 29.5 28.5 21.2 61 5.6 WSW 28 32 15 17 1010.9 1010.8 -
24/08:30am 29.4 29.1 21.1 61 5.5 WSW 24 28 13 15 1010.8 1010.7 -
24/08:00am 28.6 27.9 20.3 60 5.5 WSW 24 28 13 15 1010.6 1010.5 -
24/07:30am 27.9 27.5 21.0 66 4.6 SW 24 28 13 15 1010.5 1010.4 -
24/07:00am 27.1 26.1 20.4 66 4.4 WSW 26 28 14 15 1010.2 1010.1 -
24/06:30am 26.5 25.3 20.1 68 4.2 SW 26 30 14 16 1010.2 1010.1 -
24/06:00am 26.0 25.5 20.8 73 3.4 WSW 24 28 13 15 1010.0 1009.9 -
24/05:30am 25.4 24.6 20.9 76 3.0 WSW 26 28 14 15 1009.9 1009.8 -
24/05:00am 25.4 25.4 21.7 80 2.5 WSW 24 30 13 16 1009.7 1009.6 -
24/04:30am 25.5 25.7 22.0 81 2.3 WSW 24 28 13 15 1009.6 1009.5 -
24/04:00am 25.5 25.3 22.0 81 2.3 WSW 26 32 14 17 1009.4 1009.3 -
24/03:30am 25.6 26.0 22.5 83 2.1 SW 24 28 13 15 1009.2 1009.1 -
24/03:00am 25.7 26.6 22.6 83 2.1 SW 22 28 12 15 1009.2 1009.1 -
24/02:30am 25.6 25.4 22.7 84 2.0 WSW 28 33 15 18 1009.2 1009.1 -
24/02:00am 25.7 24.8 22.8 84 2.0 WSW 32 37 17 20 1009.1 1009.0 -
24/01:30am 25.5 25.0 22.8 85 1.8 WSW 30 37 16 20 1009.2 1009.1 -
24/01:00am 25.4 25.2 22.7 85 1.8 WSW 28 33 15 18 1009.7 1009.6 -
24/12:30am 25.5 25.2 22.6 84 2.0 WSW 28 32 15 17 1009.9 1009.8 -
24/12:00am 25.4 25.2 22.1 82 2.2 WSW 26 32 14 17 1010.3 1010.2 -
 
Date/Time
WST
Temp
°C
App
Temp
°C
Dew
Point
Rel
Hum
%
Delta-T
°C
Wind Press
QNH
hPa
Press
MSL
hPa
Rain
since 9 am
mm
Dir
 
Spd
km/h
Gust
km/h
Spd
kts
Gust
kts
23/11:30pm 25.4 25.4 21.7 80 2.5 WSW 24 30 13 16 1010.6 1010.5 -
23/11:00pm 25.6 25.2 21.7 79 2.6 WSW 26 33 14 18 1010.7 1010.6 -
23/10:30pm 25.8 25.6 21.2 76 3.0 WSW 24 32 13 17 1010.9 1010.8 -
23/10:00pm 25.9 25.1 20.9 74 3.3 W 26 32 14 17 1010.7 1010.6 -
23/09:30pm 26.1 24.8 20.7 72 3.6 W 28 33 15 18 1010.7 1010.6 -
23/09:00pm 26.0 24.3 20.6 72 3.5 WSW 30 37 16 20 1010.4 1010.3 -
23/08:30pm 25.9 24.1 21.1 75 3.2 WSW 32 37 17 20 1010.2 1010.1 -
23/08:00pm 26.2 24.1 21.0 73 3.4 WSW 33 39 18 21 1010.1 1010.0 -
23/07:30pm 26.3 24.7 20.8 71 3.6 WSW 30 33 16 18 1009.8 1009.7 -
23/07:00pm 26.5 24.7 20.3 68 4.1 WSW 30 35 16 19 1009.4 1009.3 -
23/06:30pm 26.7 24.9 20.3 68 4.2 WSW 30 35 16 19 1009.2 1009.1 -
23/06:00pm 27.3 25.5 20.4 66 4.5 W 30 35 16 19 1009.0 1008.9 -

Other Formats:

Comma delimited format used in spreadsheet applications
http://www.bom.gov.au/fwo/IDW60801/IDW60801.94307.axf

JavaScript Object Notation format (JSON) in row-major order
http://www.bom.gov.au/fwo/IDW60801/IDW60801.94307.json